Time;durP1;ratioP1;P1;durP2;ratioP2;P2;SDS_P1;SDS_P2;PMS_P1;PMS_P2;Temp;Humidity;BMP_temperature;BMP_pressure;BME280_temperature;BME280_humidity;BME280_pressure;Samples;Min_cycle;Max_cycle;Signal;HPM_P1;HPM_P2
2023/11/30 00:00:48;;;;;;;217.60;78.50;;;;;;;-128.00;-1.00;-1.00;103194;1254;1004393;-78
2023/11/30 00:03:34;;;;;;;153.30;65.90;;;;;;;-128.00;-1.00;-1.00;103115;1254;1046705;-78
2023/11/30 00:06:01;;;;;;;133.80;54.60;;;;;;;-128.00;-1.00;-1.00;105207;1253;1004692;-78
2023/11/30 00:08:27;;;;;;;188.80;75.80;;;;;;;-128.00;-1.00;-1.00;105589;1253;1004295;-78
2023/11/30 00:10:54;;;;;;;121.90;50.70;;;;;;;-128.00;-1.00;-1.00;105454;1253;1004225;-78
2023/11/30 00:13:21;;;;;;;173.70;73.30;;;;;;;-128.00;-1.00;-1.00;104817;1253;1005212;-78
2023/11/30 00:15:47;;;;;;;196.10;79.00;;;;;;;-128.00;-1.00;-1.00;103486;1253;1004866;-78
2023/11/30 00:18:14;;;;;;;205.80;91.30;;;;;;;-128.00;-1.00;-1.00;105574;1253;1004803;-78
2023/11/30 00:20:40;;;;;;;200.40;83.90;;;;;;;-128.00;-1.00;-1.00;105561;1253;1004043;-78
2023/11/30 00:23:07;;;;;;;210.30;95.60;;;;;;;-128.00;-1.00;-1.00;105642;1252;1004210;-78
2023/11/30 00:25:33;;;;;;;159.30;72.10;;;;;;;-128.00;-1.00;-1.00;105643;1252;1004431;-78
2023/11/30 00:28:00;;;;;;;144.00;63.50;;;;;;;-128.00;-1.00;-1.00;105668;1253;1004946;-78
2023/11/30 00:30:26;;;;;;;169.20;74.60;;;;;;;-128.00;-1.00;-1.00;105650;1252;1004217;-78
2023/11/30 00:32:53;;;;;;;173.40;74.90;;;;;;;-128.00;-1.00;-1.00;105674;1253;1004368;-78
2023/11/30 00:35:20;;;;;;;165.90;72.50;;;;;;;-128.00;-1.00;-1.00;105691;1252;1004283;-78
2023/11/30 00:37:46;;;;;;;143.20;59.90;;;;;;;-128.00;-1.00;-1.00;105633;1252;1004177;-78
2023/11/30 00:40:13;;;;;;;178.00;76.20;;;;;;;-128.00;-1.00;-1.00;105694;1253;1004265;-78
2023/11/30 00:42:39;;;;;;;166.80;79.50;;;;;;;-128.00;-1.00;-1.00;105647;1252;1004006;-78
2023/11/30 00:45:06;;;;;;;176.00;82.10;;;;;;;-128.00;-1.00;-1.00;105647;1252;1003923;-78
2023/11/30 00:47:33;;;;;;;176.80;81.30;;;;;;;-128.00;-1.00;-1.00;105672;1252;1005119;-78
2023/11/30 00:50:00;;;;;;;184.40;81.70;;;;;;;-128.00;-1.00;-1.00;105676;1252;1005045;-78
2023/11/30 00:52:26;;;;;;;174.20;75.50;;;;;;;-128.00;-1.00;-1.00;103853;1253;1003781;-78
2023/11/30 00:54:53;;;;;;;157.20;72.60;;;;;;;-128.00;-1.00;-1.00;103001;1253;1005294;-78
2023/11/30 00:57:20;;;;;;;158.10;72.20;;;;;;;-128.00;-1.00;-1.00;103055;1253;1004339;-78
2023/11/30 00:59:46;;;;;;;131.60;61.10;;;;;;;-128.00;-1.00;-1.00;102940;1253;1004721;-78
2023/11/30 01:02:13;;;;;;;101.60;48.00;;;;;;;-128.00;-1.00;-1.00;103052;1253;1004998;-78
2023/11/30 01:04:42;;;;;;;88.90;42.40;;;;;;;-128.00;-1.00;-1.00;103008;1253;1003831;-78
2023/11/30 01:07:09;;;;;;;87.80;41.30;;;;;;;-128.00;-1.00;-1.00;103068;1253;1063742;-78
2023/11/30 01:09:38;;;;;;;88.70;39.10;;;;;;;-128.00;-1.00;-1.00;103043;1253;1003859;-78
2023/11/30 01:12:05;;;;;;;90.60;38.60;;;;;;;-128.00;-1.00;-1.00;103066;1253;1059692;-78
2023/11/30 01:14:32;;;;;;;79.20;40.30;;;;;;;-128.00;-1.00;-1.00;103659;1253;1004686;-78
2023/11/30 01:16:58;;;;;;;91.80;40.00;;;;;;;-128.00;-1.00;-1.00;103066;1253;1003659;-78
2023/11/30 01:19:25;;;;;;;82.20;41.60;;;;;;;-128.00;-1.00;-1.00;103077;1253;1004114;-78
2023/11/30 01:21:51;;;;;;;70.10;31.80;;;;;;;-128.00;-1.00;-1.00;103089;1253;1004735;-78
2023/11/30 01:24:18;;;;;;;67.30;31.50;;;;;;;-128.00;-1.00;-1.00;103171;1252;1004270;-78
2023/11/30 01:26:44;;;;;;;72.40;31.00;;;;;;;-128.00;-1.00;-1.00;103055;1253;1005190;-78
2023/11/30 01:29:11;;;;;;;71.40;31.90;;;;;;;-128.00;-1.00;-1.00;103106;1253;1004714;-78
2023/11/30 01:31:37;;;;;;;61.90;30.50;;;;;;;-128.00;-1.00;-1.00;103140;1253;1006683;-78
2023/11/30 01:34:04;;;;;;;58.70;26.90;;;;;;;-128.00;-1.00;-1.00;103023;1253;1004471;-78
2023/11/30 01:36:31;;;;;;;68.10;32.70;;;;;;;-128.00;-1.00;-1.00;105649;1252;1004686;-78
2023/11/30 01:38:57;;;;;;;70.50;30.70;;;;;;;-128.00;-1.00;-1.00;105636;1252;1003598;-78
2023/11/30 01:41:24;;;;;;;67.70;34.50;;;;;;;-128.00;-1.00;-1.00;104960;1252;1004545;-78
2023/11/30 01:43:50;;;;;;;76.50;35.00;;;;;;;-128.00;-1.00;-1.00;103120;1252;1004418;-78
2023/11/30 01:46:17;;;;;;;81.00;39.00;;;;;;;-128.00;-1.00;-1.00;103102;1252;1004336;-77
2023/11/30 01:48:43;;;;;;;76.70;37.00;;;;;;;-128.00;-1.00;-1.00;103094;1253;1004090;-78
2023/11/30 01:51:10;;;;;;;91.50;39.40;;;;;;;-128.00;-1.00;-1.00;103027;1253;1004482;-78
2023/11/30 01:53:36;;;;;;;70.00;32.70;;;;;;;-128.00;-1.00;-1.00;103026;1253;1004924;-79
2023/11/30 01:56:03;;;;;;;58.80;27.90;;;;;;;-128.00;-1.00;-1.00;102963;1254;1005100;-78
2023/11/30 01:58:30;;;;;;;45.60;22.70;;;;;;;-128.00;-1.00;-1.00;102844;1254;1004220;-78
2023/11/30 02:00:57;;;;;;;48.30;22.00;;;;;;;-128.00;-1.00;-1.00;102940;1254;1004021;-78
2023/11/30 02:03:24;;;;;;;38.70;19.70;;;;;;;-128.00;-1.00;-1.00;102848;1260;1004584;-78
2023/11/30 02:05:51;;;;;;;41.60;20.30;;;;;;;-128.00;-1.00;-1.00;102974;1254;1004332;-78
2023/11/30 02:08:17;;;;;;;35.00;18.20;;;;;;;-128.00;-1.00;-1.00;105484;1254;1004261;-78
2023/11/30 02:10:44;;;;;;;58.20;30.40;;;;;;;-128.00;-1.00;-1.00;105471;1254;1004292;-78
2023/11/30 02:13:10;;;;;;;60.40;29.30;;;;;;;-128.00;-1.00;-1.00;105451;1254;1004669;-78
2023/11/30 02:15:37;;;;;;;104.10;48.40;;;;;;;-128.00;-1.00;-1.00;105461;1254;1004123;-78
2023/11/30 02:18:04;;;;;;;143.70;62.90;;;;;;;-128.00;-1.00;-1.00;105449;1255;1004461;-78
2023/11/30 02:20:30;;;;;;;75.00;38.00;;;;;;;-128.00;-1.00;-1.00;105486;1254;1003703;-78
2023/11/30 02:22:57;;;;;;;100.80;45.10;;;;;;;-128.00;-1.00;-1.00;105646;1253;1003506;-78
2023/11/30 02:25:23;;;;;;;78.20;36.70;;;;;;;-128.00;-1.00;-1.00;105634;1252;1004741;-78
2023/11/30 02:27:50;;;;;;;68.30;34.60;;;;;;;-128.00;-1.00;-1.00;105666;1252;1003665;-78
2023/11/30 02:30:17;;;;;;;64.80;33.00;;;;;;;-128.00;-1.00;-1.00;105397;1253;1004384;-78
2023/11/30 02:32:43;;;;;;;57.30;29.60;;;;;;;-128.00;-1.00;-1.00;105659;1253;1004970;-78
2023/11/30 02:35:10;;;;;;;51.50;25.30;;;;;;;-128.00;-1.00;-1.00;105697;1252;1004794;-79
2023/11/30 02:37:36;;;;;;;46.90;23.40;;;;;;;-128.00;-1.00;-1.00;105470;1253;1004084;-78
2023/11/30 02:40:03;;;;;;;41.00;22.60;;;;;;;-128.00;-1.00;-1.00;105636;1252;1003523;-79
2023/11/30 02:42:30;;;;;;;39.00;20.50;;;;;;;-128.00;-1.00;-1.00;105479;1252;1003812;-78
2023/11/30 02:44:56;;;;;;;43.40;20.80;;;;;;;-128.00;-1.00;-1.00;103082;1253;1005123;-78
2023/11/30 02:47:22;;;;;;;42.70;20.50;;;;;;;-128.00;-1.00;-1.00;103106;1252;1005018;-78
2023/11/30 02:49:49;;;;;;;39.10;21.20;;;;;;;-128.00;-1.00;-1.00;103181;1253;1004763;-78
2023/11/30 02:52:16;;;;;;;25.50;13.30;;;;;;;-128.00;-1.00;-1.00;103150;1253;1004615;-78
2023/11/30 02:54:42;;;;;;;25.20;14.90;;;;;;;-128.00;-1.00;-1.00;103157;1253;1004375;-78
2023/11/30 02:57:09;;;;;;;28.80;15.90;;;;;;;-128.00;-1.00;-1.00;103011;1253;1004302;-78
2023/11/30 02:59:35;;;;;;;28.80;16.90;;;;;;;-128.00;-1.00;-1.00;103062;1257;1003968;-78
2023/11/30 03:02:02;;;;;;;33.20;16.30;;;;;;;-128.00;-1.00;-1.00;103088;1253;1004706;-78
2023/11/30 03:04:28;;;;;;;35.40;19.20;;;;;;;-128.00;-1.00;-1.00;103051;1253;1005361;-78
2023/11/30 03:06:55;;;;;;;29.20;17.30;;;;;;;-128.00;-1.00;-1.00;103018;1253;1004511;-78
2023/11/30 03:09:22;;;;;;;31.90;17.30;;;;;;;-128.00;-1.00;-1.00;102936;1253;1003613;-78
2023/11/30 03:11:48;;;;;;;42.20;22.60;;;;;;;-128.00;-1.00;-1.00;103175;1253;1004159;-78
2023/11/30 03:14:15;;;;;;;47.70;23.60;;;;;;;-128.00;-1.00;-1.00;102999;1253;1005042;-78
2023/11/30 03:16:41;;;;;;;53.80;26.20;;;;;;;-128.00;-1.00;-1.00;103003;1253;1004565;-78
2023/11/30 03:19:08;;;;;;;87.80;45.40;;;;;;;-128.00;-1.00;-1.00;103059;1253;1003942;-78
2023/11/30 03:21:34;;;;;;;98.70;44.60;;;;;;;-128.00;-1.00;-1.00;102989;1252;1007698;-78
2023/11/30 03:24:01;;;;;;;68.90;31.20;;;;;;;-128.00;-1.00;-1.00;103162;1253;1004781;-78
2023/11/30 03:26:28;;;;;;;53.80;26.30;;;;;;;-128.00;-1.00;-1.00;103042;1252;1004461;-78
2023/11/30 03:28:54;;;;;;;56.80;26.50;;;;;;;-128.00;-1.00;-1.00;103109;1253;1005198;-78
2023/11/30 03:31:21;;;;;;;77.30;40.30;;;;;;;-128.00;-1.00;-1.00;103138;1252;1004825;-78
2023/11/30 03:33:47;;;;;;;165.00;61.70;;;;;;;-128.00;-1.00;-1.00;103145;1256;1004681;-78
2023/11/30 03:36:14;;;;;;;116.90;48.40;;;;;;;-128.00;-1.00;-1.00;103134;1252;1003571;-78
2023/11/30 03:38:40;;;;;;;60.50;28.20;;;;;;;-128.00;-1.00;-1.00;103088;1253;1003865;-78
2023/11/30 03:41:07;;;;;;;35.40;16.20;;;;;;;-128.00;-1.00;-1.00;105197;1252;1005207;-78
2023/11/30 03:43:33;;;;;;;75.60;33.80;;;;;;;-128.00;-1.00;-1.00;105668;1253;1003790;-78
2023/11/30 03:46:00;;;;;;;50.60;22.80;;;;;;;-128.00;-1.00;-1.00;104269;1252;1003989;-78
2023/11/30 03:48:26;;;;;;;31.30;13.30;;;;;;;-128.00;-1.00;-1.00;103125;1252;1004738;-78
2023/11/30 03:50:53;;;;;;;17.20;8.90;;;;;;;-128.00;-1.00;-1.00;103096;1252;1004004;-78
2023/11/30 03:53:19;;;;;;;19.90;10.30;;;;;;;-128.00;-1.00;-1.00;103122;1252;1005571;-78
2023/11/30 03:55:46;;;;;;;13.00;7.10;;;;;;;-128.00;-1.00;-1.00;103112;1253;1004548;-78
2023/11/30 03:58:12;;;;;;;15.50;8.50;;;;;;;-128.00;-1.00;-1.00;103022;1257;1004628;-78
2023/11/30 04:00:39;;;;;;;14.50;9.00;;;;;;;-128.00;-1.00;-1.00;103075;1253;1003856;-78
2023/11/30 04:03:06;;;;;;;17.30;12.20;;;;;;;-128.00;-1.00;-1.00;103066;1253;1004654;-78
2023/11/30 04:05:32;;;;;;;14.50;9.70;;;;;;;-128.00;-1.00;-1.00;103103;1253;1005527;-78
2023/11/30 04:08:00;;;;;;;14.60;8.70;;;;;;;-128.00;-1.00;-1.00;103079;1253;1003769;-78
2023/11/30 04:10:27;;;;;;;12.20;8.00;;;;;;;-128.00;-1.00;-1.00;103082;1253;1004752;-78
2023/11/30 04:12:54;;;;;;;11.80;7.30;;;;;;;-128.00;-1.00;-1.00;102857;1253;1004044;-78
2023/11/30 04:15:20;;;;;;;12.20;8.00;;;;;;;-128.00;-1.00;-1.00;103062;1253;1006322;-78
2023/11/30 04:17:47;;;;;;;16.20;8.30;;;;;;;-128.00;-1.00;-1.00;103012;1253;1004464;-79
2023/11/30 04:20:13;;;;;;;15.80;9.40;;;;;;;-128.00;-1.00;-1.00;103054;1253;1004480;-78
2023/11/30 04:22:40;;;;;;;21.50;13.00;;;;;;;-128.00;-1.00;-1.00;103133;1253;1004229;-79
2023/11/30 04:25:07;;;;;;;21.20;15.80;;;;;;;-128.00;-1.00;-1.00;103015;1253;1004921;-78
2023/11/30 04:27:33;;;;;;;23.00;14.60;;;;;;;-128.00;-1.00;-1.00;103066;1253;1004909;-78
2023/11/30 04:30:00;;;;;;;25.30;14.30;;;;;;;-128.00;-1.00;-1.00;103086;1253;1004739;-78
2023/11/30 04:32:26;;;;;;;23.00;13.60;;;;;;;-128.00;-1.00;-1.00;103106;1252;1004415;-78
2023/11/30 04:34:53;;;;;;;31.70;19.20;;;;;;;-128.00;-1.00;-1.00;103067;1252;1004694;-78
2023/11/30 04:37:19;;;;;;;37.20;23.10;;;;;;;-128.00;-1.00;-1.00;103110;1253;1003714;-78
2023/11/30 04:39:46;;;;;;;48.30;25.80;;;;;;;-128.00;-1.00;-1.00;103100;1253;1003875;-78
2023/11/30 04:42:12;;;;;;;46.90;26.90;;;;;;;-128.00;-1.00;-1.00;103060;1252;1004453;-78
2023/11/30 04:44:39;;;;;;;56.90;31.40;;;;;;;-128.00;-1.00;-1.00;103107;1253;1003766;-79
2023/11/30 04:47:06;;;;;;;71.60;36.80;;;;;;;-128.00;-1.00;-1.00;102889;1253;1005697;-78
2023/11/30 04:49:33;;;;;;;63.20;33.60;;;;;;;-128.00;-1.00;-1.00;104925;1252;1004444;-79
2023/11/30 04:51:59;;;;;;;65.50;33.90;;;;;;;-128.00;-1.00;-1.00;105623;1252;1003919;-78
2023/11/30 04:54:26;;;;;;;62.40;33.50;;;;;;;-128.00;-1.00;-1.00;105424;1252;1004285;-79
2023/11/30 04:56:52;;;;;;;69.50;33.80;;;;;;;-128.00;-1.00;-1.00;103025;1253;1004400;-78
2023/11/30 04:59:19;;;;;;;66.30;35.90;;;;;;;-128.00;-1.00;-1.00;103031;1253;1004464;-78
2023/11/30 05:01:45;;;;;;;80.20;38.80;;;;;;;-128.00;-1.00;-1.00;102899;1253;1004879;-78
2023/11/30 05:04:12;;;;;;;118.20;56.70;;;;;;;-128.00;-1.00;-1.00;103060;1253;1006592;-78
2023/11/30 05:06:39;;;;;;;162.90;78.70;;;;;;;-128.00;-1.00;-1.00;103076;1253;1005006;-78
2023/11/30 05:09:05;;;;;;;164.60;68.30;;;;;;;-128.00;-1.00;-1.00;103006;1253;1004226;-78
2023/11/30 05:11:32;;;;;;;146.00;60.10;;;;;;;-128.00;-1.00;-1.00;103041;1253;1005029;-78
2023/11/30 05:13:58;;;;;;;124.70;53.80;;;;;;;-128.00;-1.00;-1.00;103085;1253;1004698;-78
2023/11/30 05:16:25;;;;;;;140.60;60.00;;;;;;;-128.00;-1.00;-1.00;103019;1253;1003502;-78
2023/11/30 05:18:51;;;;;;;117.90;50.20;;;;;;;-128.00;-1.00;-1.00;103029;1253;1004581;-78
2023/11/30 05:21:18;;;;;;;97.70;47.00;;;;;;;-128.00;-1.00;-1.00;103131;1253;1007462;-78
2023/11/30 05:23:44;;;;;;;97.10;45.50;;;;;;;-128.00;-1.00;-1.00;103026;1253;1004040;-78
2023/11/30 05:26:11;;;;;;;110.20;48.60;;;;;;;-128.00;-1.00;-1.00;103132;1253;1004478;-78
2023/11/30 05:28:37;;;;;;;102.20;46.20;;;;;;;-128.00;-1.00;-1.00;103116;1253;1004654;-78
2023/11/30 05:31:04;;;;;;;77.20;39.50;;;;;;;-128.00;-1.00;-1.00;103023;1253;1005500;-78
2023/11/30 05:33:31;;;;;;;65.20;31.50;;;;;;;-128.00;-1.00;-1.00;103124;1253;1004337;-78
2023/11/30 05:35:57;;;;;;;58.40;29.60;;;;;;;-128.00;-1.00;-1.00;103111;1253;1004764;-78
2023/11/30 05:38:24;;;;;;;61.50;30.60;;;;;;;-128.00;-1.00;-1.00;103141;1253;1004901;-78
2023/11/30 05:40:50;;;;;;;65.80;31.40;;;;;;;-128.00;-1.00;-1.00;103126;1253;1004426;-78
2023/11/30 05:43:17;;;;;;;57.40;28.70;;;;;;;-128.00;-1.00;-1.00;103522;1253;1004521;-78
2023/11/30 05:45:44;;;;;;;56.80;29.50;;;;;;;-128.00;-1.00;-1.00;105666;1253;1004329;-78
2023/11/30 05:48:10;;;;;;;62.50;28.10;;;;;;;-128.00;-1.00;-1.00;105679;1252;1003571;-78
2023/11/30 05:50:37;;;;;;;63.30;29.10;;;;;;;-128.00;-1.00;-1.00;105694;1253;1003766;-78
2023/11/30 05:53:05;;;;;;;55.10;27.20;;;;;;;-128.00;-1.00;-1.00;105479;1256;1003724;-78
2023/11/30 05:55:31;;;;;;;49.50;23.70;;;;;;;-128.00;-1.00;-1.00;105612;1253;1004542;-78
2023/11/30 05:57:58;;;;;;;51.30;22.90;;;;;;;-128.00;-1.00;-1.00;105578;1253;1004895;-78
2023/11/30 06:00:25;;;;;;;52.10;25.00;;;;;;;-128.00;-1.00;-1.00;103423;1253;1004250;-78
2023/11/30 06:02:51;;;;;;;56.60;26.60;;;;;;;-128.00;-1.00;-1.00;103340;1253;1004418;-78
2023/11/30 06:05:18;;;;;;;56.30;27.40;;;;;;;-128.00;-1.00;-1.00;105585;1253;1004705;-78
2023/11/30 06:07:44;;;;;;;71.30;36.40;;;;;;;-128.00;-1.00;-1.00;105568;1253;1004142;-78
2023/11/30 06:10:11;;;;;;;83.50;37.50;;;;;;;-128.00;-1.00;-1.00;105618;1253;1004380;-78
2023/11/30 06:12:38;;;;;;;105.30;45.80;;;;;;;-128.00;-1.00;-1.00;105599;1253;1005122;-78
2023/11/30 06:15:05;;;;;;;87.30;42.20;;;;;;;-128.00;-1.00;-1.00;105621;1253;1004880;-78
2023/11/30 06:17:32;;;;;;;66.00;35.40;;;;;;;-128.00;-1.00;-1.00;105606;1253;1005199;-78
2023/11/30 06:19:58;;;;;;;77.40;36.70;;;;;;;-128.00;-1.00;-1.00;105586;1253;1004407;-78
2023/11/30 06:22:24;;;;;;;71.60;32.00;;;;;;;-128.00;-1.00;-1.00;105625;1253;1003809;-78
2023/11/30 06:24:51;;;;;;;125.80;51.40;;;;;;;-128.00;-1.00;-1.00;105403;1256;1004947;-78
2023/11/30 06:27:17;;;;;;;106.00;55.60;;;;;;;-128.00;-1.00;-1.00;105640;1253;1003978;-78
2023/11/30 06:29:44;;;;;;;101.70;49.30;;;;;;;-128.00;-1.00;-1.00;104368;1253;1004392;-78
2023/11/30 06:32:10;;;;;;;114.60;54.00;;;;;;;-128.00;-1.00;-1.00;103032;1253;1003694;-78
2023/11/30 06:34:37;;;;;;;134.30;61.90;;;;;;;-128.00;-1.00;-1.00;103136;1257;1004871;-78
2023/11/30 06:37:04;;;;;;;152.20;64.90;;;;;;;-128.00;-1.00;-1.00;103054;1253;1004805;-78
2023/11/30 06:39:30;;;;;;;174.90;74.90;;;;;;;-128.00;-1.00;-1.00;103165;1253;1005172;-78
2023/11/30 06:41:57;;;;;;;399.30;149.70;;;;;;;-128.00;-1.00;-1.00;103074;1253;1004097;-78
2023/11/30 06:44:23;;;;;;;221.80;94.00;;;;;;;-128.00;-1.00;-1.00;103136;1253;1005005;-78
2023/11/30 06:46:49;;;;;;;359.30;141.30;;;;;;;-128.00;-1.00;-1.00;103079;1253;1004157;-78
2023/11/30 06:49:16;;;;;;;174.50;80.40;;;;;;;-128.00;-1.00;-1.00;103106;1257;1004744;-78
2023/11/30 06:51:43;;;;;;;159.70;68.20;;;;;;;-128.00;-1.00;-1.00;103241;1253;1005540;-78
2023/11/30 06:54:09;;;;;;;157.40;71.70;;;;;;;-128.00;-1.00;-1.00;103116;1253;1004653;-79
2023/11/30 06:56:36;;;;;;;198.00;74.30;;;;;;;-128.00;-1.00;-1.00;103120;1253;1004539;-78
2023/11/30 06:59:03;;;;;;;180.60;71.50;;;;;;;-128.00;-1.00;-1.00;102999;1253;1004694;-78
2023/11/30 07:01:30;;;;;;;180.00;71.40;;;;;;;-128.00;-1.00;-1.00;103079;1253;1003686;-78
2023/11/30 07:03:56;;;;;;;185.80;69.70;;;;;;;-128.00;-1.00;-1.00;103163;1253;1003661;-78
2023/11/30 07:06:23;;;;;;;180.90;63.20;;;;;;;-128.00;-1.00;-1.00;103191;1253;1004175;-78
2023/11/30 07:08:49;;;;;;;180.90;71.40;;;;;;;-128.00;-1.00;-1.00;103483;1253;1005447;-78
2023/11/30 07:11:16;;;;;;;175.70;70.50;;;;;;;-128.00;-1.00;-1.00;103218;1256;1004536;-78
2023/11/30 07:13:43;;;;;;;161.00;68.00;;;;;;;-128.00;-1.00;-1.00;104233;1253;1003750;-78
2023/11/30 07:16:10;;;;;;;152.10;62.60;;;;;;;-128.00;-1.00;-1.00;105492;1253;1004374;-78
2023/11/30 07:18:37;;;;;;;133.00;57.20;;;;;;;-128.00;-1.00;-1.00;105498;1253;1005020;-78
2023/11/30 07:21:04;;;;;;;135.10;52.70;;;;;;;-128.00;-1.00;-1.00;105534;1253;1004072;-78
2023/11/30 07:23:32;;;;;;;133.00;55.70;;;;;;;-128.00;-1.00;-1.00;103448;1253;1004361;-78
2023/11/30 07:25:58;;;;;;;120.90;50.80;;;;;;;-128.00;-1.00;-1.00;103452;1253;1004378;-78
2023/11/30 07:28:26;;;;;;;142.70;61.80;;;;;;;-128.00;-1.00;-1.00;103483;1253;1004267;-78
2023/11/30 07:30:52;;;;;;;161.60;66.20;;;;;;;-128.00;-1.00;-1.00;105018;1253;1005528;-78
2023/11/30 07:33:18;;;;;;;155.80;65.70;;;;;;;-128.00;-1.00;-1.00;105566;1253;1003628;-78
2023/11/30 07:35:45;;;;;;;171.70;75.30;;;;;;;-128.00;-1.00;-1.00;105546;1253;1005053;-78
2023/11/30 07:38:12;;;;;;;149.90;63.50;;;;;;;-128.00;-1.00;-1.00;105410;1253;1004769;-78
2023/11/30 07:40:38;;;;;;;119.60;54.60;;;;;;;-128.00;-1.00;-1.00;105486;1253;1004443;-78
2023/11/30 07:43:05;;;;;;;173.60;74.90;;;;;;;-128.00;-1.00;-1.00;105486;1253;1004521;-78
2023/11/30 07:45:31;;;;;;;230.40;94.90;;;;;;;-128.00;-1.00;-1.00;105470;1256;1004247;-78
2023/11/30 07:47:59;;;;;;;156.10;66.40;;;;;;;-128.00;-1.00;-1.00;105454;1257;1003976;-78
2023/11/30 07:50:27;;;;;;;144.40;64.20;;;;;;;-128.00;-1.00;-1.00;105494;1253;1003402;-78
2023/11/30 07:52:53;;;;;;;154.90;68.40;;;;;;;-128.00;-1.00;-1.00;105413;1253;1005003;-78
2023/11/30 07:55:20;;;;;;;151.50;63.40;;;;;;;-128.00;-1.00;-1.00;105502;1254;1004362;-78
2023/11/30 07:57:50;;;;;;;126.40;57.10;;;;;;;-128.00;-1.00;-1.00;105232;1253;1004686;-78
2023/11/30 08:00:17;;;;;;;118.80;53.50;;;;;;;-128.00;-1.00;-1.00;105524;1253;1047592;-78
2023/11/30 08:02:44;;;;;;;127.80;58.10;;;;;;;-128.00;-1.00;-1.00;105514;1253;1004336;-78
2023/11/30 08:05:12;;;;;;;122.50;51.40;;;;;;;-128.00;-1.00;-1.00;105252;1252;1004438;-78
2023/11/30 08:07:38;;;;;;;106.70;50.20;;;;;;;-128.00;-1.00;-1.00;105453;1255;1004242;-79
2023/11/30 08:10:06;;;;;;;125.20;54.00;;;;;;;-128.00;-1.00;-1.00;105276;1253;1004664;-78
2023/11/30 08:12:32;;;;;;;205.90;88.20;;;;;;;-128.00;-1.00;-1.00;105450;1253;1004023;-78
2023/11/30 08:14:59;;;;;;;147.00;63.80;;;;;;;-128.00;-1.00;-1.00;105437;1253;1004000;-78
2023/11/30 08:17:25;;;;;;;127.30;65.00;;;;;;;-128.00;-1.00;-1.00;105448;1253;1004425;-78
2023/11/30 08:19:52;;;;;;;106.20;45.50;;;;;;;-128.00;-1.00;-1.00;105288;1253;1004932;-78
2023/11/30 08:22:19;;;;;;;107.40;53.70;;;;;;;-128.00;-1.00;-1.00;105472;1253;1003639;-78
2023/11/30 08:24:45;;;;;;;126.40;58.60;;;;;;;-128.00;-1.00;-1.00;105518;1253;1004289;-78
2023/11/30 08:27:12;;;;;;;132.30;55.40;;;;;;;-128.00;-1.00;-1.00;105548;1253;1004316;-78
2023/11/30 08:29:38;;;;;;;120.70;52.30;;;;;;;-128.00;-1.00;-1.00;105531;1253;1005342;-79
2023/11/30 08:32:05;;;;;;;130.80;53.40;;;;;;;-128.00;-1.00;-1.00;105485;1253;1004767;-78
2023/11/30 08:34:32;;;;;;;119.30;52.80;;;;;;;-128.00;-1.00;-1.00;105520;1253;1004379;-78
2023/11/30 08:36:59;;;;;;;108.20;48.50;;;;;;;-128.00;-1.00;-1.00;105396;1253;1003773;-78
2023/11/30 08:39:28;;;;;;;95.20;44.80;;;;;;;-128.00;-1.00;-1.00;105488;1256;1003620;-78
2023/11/30 08:41:54;;;;;;;132.60;56.70;;;;;;;-128.00;-1.00;-1.00;105571;1253;1058413;-78
2023/11/30 08:44:22;;;;;;;131.50;56.70;;;;;;;-128.00;-1.00;-1.00;105360;1253;1003911;-78
2023/11/30 08:46:49;;;;;;;154.40;67.50;;;;;;;-128.00;-1.00;-1.00;105519;1253;1004419;-79
2023/11/30 08:49:16;;;;;;;98.40;45.20;;;;;;;-128.00;-1.00;-1.00;105404;1253;1003923;-78
2023/11/30 08:51:44;;;;;;;95.70;45.10;;;;;;;-128.00;-1.00;-1.00;105494;1253;1004145;-78
2023/11/30 08:54:11;;;;;;;100.70;44.90;;;;;;;-128.00;-1.00;-1.00;105450;1254;1004319;-78
2023/11/30 08:56:37;;;;;;;182.80;76.10;;;;;;;-128.00;-1.00;-1.00;105573;1253;1004527;-78
2023/11/30 08:59:03;;;;;;;82.40;37.10;;;;;;;-128.00;-1.00;-1.00;105514;1254;1004519;-78
2023/11/30 09:01:32;;;;;;;78.00;38.40;;;;;;;-128.00;-1.00;-1.00;105546;1254;1003469;-79
2023/11/30 09:04:05;;;;;;;82.50;37.20;;;;;;;-128.00;-1.00;-1.00;105595;1253;1005169;-78
2023/11/30 09:06:32;;;;;;;248.30;103.20;;;;;;;-128.00;-1.00;-1.00;105438;1254;1058269;-78
2023/11/30 09:08:59;;;;;;;187.90;83.30;;;;;;;-128.00;-1.00;-1.00;103784;1255;1004218;-78
2023/11/30 09:11:26;;;;;;;248.30;106.20;;;;;;;-128.00;-1.00;-1.00;103083;1253;1004905;-78
2023/11/30 09:13:52;;;;;;;187.40;88.70;;;;;;;-128.00;-1.00;-1.00;103381;1254;1003975;-78
2023/11/30 09:16:19;;;;;;;202.80;98.90;;;;;;;-128.00;-1.00;-1.00;103062;1254;1004956;-78
2023/11/30 09:18:45;;;;;;;118.90;59.20;;;;;;;-128.00;-1.00;-1.00;103470;1253;1004124;-78
2023/11/30 09:21:12;;;;;;;68.70;34.80;;;;;;;-128.00;-1.00;-1.00;104027;1254;1006000;-78
2023/11/30 09:23:38;;;;;;;70.20;32.70;;;;;;;-128.00;-1.00;-1.00;104711;1253;1004270;-78
2023/11/30 09:26:06;;;;;;;93.60;49.10;;;;;;;-128.00;-1.00;-1.00;105484;1253;1003883;-79
2023/11/30 09:28:33;;;;;;;90.00;51.40;;;;;;;-128.00;-1.00;-1.00;104382;1256;1003729;-78
2023/11/30 09:31:04;;;;;;;90.10;50.00;;;;;;;-128.00;-1.00;-1.00;103777;1254;1003835;-78
2023/11/30 09:33:30;;;;;;;84.30;40.40;;;;;;;-128.00;-1.00;-1.00;104860;1254;1061247;-78
2023/11/30 09:35:57;;;;;;;206.00;105.20;;;;;;;-128.00;-1.00;-1.00;103827;1254;1004085;-78
2023/11/30 09:38:23;;;;;;;215.00;112.10;;;;;;;-128.00;-1.00;-1.00;103335;1254;1004682;-78
2023/11/30 09:40:51;;;;;;;331.40;161.10;;;;;;;-128.00;-1.00;-1.00;103213;1254;1003970;-78
2023/11/30 09:43:18;;;;;;;266.50;133.20;;;;;;;-128.00;-1.00;-1.00;103469;1254;1003836;-79
2023/11/30 09:45:45;;;;;;;270.40;132.10;;;;;;;-128.00;-1.00;-1.00;103110;1254;1004295;-78
2023/11/30 09:48:11;;;;;;;334.00;175.10;;;;;;;-128.00;-1.00;-1.00;103089;1254;1004435;-78
2023/11/30 09:50:38;;;;;;;110.90;65.70;;;;;;;-128.00;-1.00;-1.00;103513;1254;1004226;-78
2023/11/30 09:53:04;;;;;;;80.80;43.10;;;;;;;-128.00;-1.00;-1.00;103185;1255;1004745;-78
2023/11/30 09:55:31;;;;;;;63.00;35.80;;;;;;;-128.00;-1.00;-1.00;103080;1257;1005472;-79
2023/11/30 09:57:58;;;;;;;54.20;27.50;;;;;;;-128.00;-1.00;-1.00;103104;1254;1004206;-78
2023/11/30 10:00:24;;;;;;;50.90;27.60;;;;;;;-128.00;-1.00;-1.00;103214;1254;1003800;-78
2023/11/30 10:02:54;;;;;;;53.70;29.00;;;;;;;-128.00;-1.00;-1.00;103095;1256;1005416;-79
2023/11/30 10:05:21;;;;;;;51.70;26.50;;;;;;;-128.00;-1.00;-1.00;103181;1253;1063808;-78
2023/11/30 10:07:47;;;;;;;70.80;35.00;;;;;;;-128.00;-1.00;-1.00;103087;1254;1004300;-79
2023/11/30 10:10:14;;;;;;;84.10;40.50;;;;;;;-128.00;-1.00;-1.00;103051;1255;1003756;-78
2023/11/30 10:12:41;;;;;;;91.70;42.80;;;;;;;-128.00;-1.00;-1.00;103135;1257;1004426;-79
2023/11/30 10:15:09;;;;;;;63.10;35.50;;;;;;;-128.00;-1.00;-1.00;103246;1256;1004040;-78
2023/11/30 10:17:36;;;;;;;63.20;31.30;;;;;;;-128.00;-1.00;-1.00;102907;1254;1005315;-79
2023/11/30 10:20:04;;;;;;;62.80;33.70;;;;;;;-128.00;-1.00;-1.00;103133;1257;1004082;-79
2023/11/30 10:22:31;;;;;;;60.10;31.50;;;;;;;-128.00;-1.00;-1.00;103136;1254;1004582;-78
2023/11/30 10:24:58;;;;;;;60.50;29.80;;;;;;;-128.00;-1.00;-1.00;103159;1253;1003878;-78
2023/11/30 10:27:24;;;;;;;50.10;25.80;;;;;;;-128.00;-1.00;-1.00;103014;1254;1004633;-78
2023/11/30 10:29:53;;;;;;;53.90;26.30;;;;;;;-128.00;-1.00;-1.00;103074;1254;1004452;-78
2023/11/30 10:32:20;;;;;;;48.00;24.90;;;;;;;-128.00;-1.00;-1.00;102946;1254;1059111;-78
2023/11/30 10:34:48;;;;;;;46.20;23.70;;;;;;;-128.00;-1.00;-1.00;103156;1259;1004608;-79
2023/11/30 10:37:23;;;;;;;58.60;30.20;;;;;;;-128.00;-1.00;-1.00;103076;1256;1003885;-78
2023/11/30 10:40:10;;;;;;;93.60;44.90;;;;;;;-128.00;-1.00;-1.00;103141;1254;1046814;-79
2023/11/30 10:42:36;;;;;;;164.60;69.50;;;;;;;-128.00;-1.00;-1.00;103036;1259;1063091;-79
2023/11/30 10:45:04;;;;;;;164.80;67.40;;;;;;;-128.00;-1.00;-1.00;103118;1259;1004153;-79
2023/11/30 10:47:31;;;;;;;65.10;32.10;;;;;;;-128.00;-1.00;-1.00;102998;1257;1004051;-78
2023/11/30 10:49:59;;;;;;;296.30;118.60;;;;;;;-128.00;-1.00;-1.00;103038;1254;1004706;-78
2023/11/30 10:52:30;;;;;;;170.60;70.70;;;;;;;-128.00;-1.00;-1.00;103411;1254;1003929;-79
2023/11/30 10:55:19;;;;;;;370.70;147.30;;;;;;;-128.00;-1.00;-1.00;103176;1254;1063718;-79